createdAt,value
2019-02-25T00:02:24.777Z,16.30
2019-02-25T00:04:54.851Z,16.37
2019-02-25T00:07:24.839Z,17.50
2019-02-25T00:09:54.956Z,17.77
2019-02-25T00:12:24.840Z,17.47
2019-02-25T00:14:54.801Z,18.60
2019-02-25T00:17:24.669Z,17.90
2019-02-25T00:19:54.563Z,18.10
2019-02-25T00:22:24.610Z,17.67
2019-02-25T00:24:55.051Z,17.97
2019-02-25T00:27:25.354Z,18.13
2019-02-25T00:29:57.092Z,17.43
2019-02-25T00:32:27.334Z,17.23
2019-02-25T00:34:57.761Z,16.87
2019-02-25T00:37:28.135Z,17.20
2019-02-25T00:39:59.694Z,17.50
2019-02-25T00:42:30.104Z,19.83
2019-02-25T00:45:00.393Z,19.10
2019-02-25T00:47:30.714Z,17.40
2019-02-25T00:50:00.951Z,18.97
2019-02-25T00:52:31.362Z,18.23
2019-02-25T00:55:01.724Z,18.97
2019-02-25T00:57:32.012Z,17.23
2019-02-25T01:00:02.251Z,17.80
2019-02-25T01:02:32.556Z,17.07
2019-02-25T01:05:02.984Z,19.53
2019-02-25T01:07:33.208Z,16.90
2019-02-25T01:10:03.428Z,19.40
2019-02-25T01:12:33.688Z,20.10
2019-02-25T01:15:04.314Z,20.23
2019-02-25T01:17:34.724Z,19.60
2019-02-25T01:20:05.411Z,18.13
2019-02-25T01:22:35.883Z,19.50
2019-02-25T01:25:07.938Z,18.37
2019-02-25T01:27:38.194Z,18.37
2019-02-25T01:30:10.940Z,17.60
2019-02-25T01:32:41.163Z,19.20
2019-02-25T01:35:12.443Z,19.30
2019-02-25T01:37:42.768Z,18.03
2019-02-25T01:40:13.383Z,18.37
2019-02-25T01:42:43.566Z,19.10
2019-02-25T01:45:14.328Z,18.70
2019-02-25T01:47:44.542Z,18.37
2019-02-25T01:50:15.071Z,19.50
2019-02-25T01:52:45.414Z,17.83
2019-02-25T01:55:15.718Z,18.37
2019-02-25T01:57:46.179Z,18.17
2019-02-25T02:00:16.780Z,19.50
2019-02-25T02:02:47.341Z,18.47
2019-02-25T02:05:17.529Z,17.70
2019-02-25T02:07:47.855Z,17.93
2019-02-25T02:10:18.511Z,17.77
2019-02-25T02:12:49.733Z,17.53
2019-02-25T02:15:20.361Z,17.67
2019-02-25T02:17:50.597Z,18.30
2019-02-25T02:20:20.952Z,19.77
2019-02-25T02:22:51.252Z,18.50
2019-02-25T02:25:21.455Z,18.43
2019-02-25T02:27:51.882Z,17.27
2019-02-25T02:30:22.254Z,17.60
2019-02-25T02:32:52.489Z,18.07
2019-02-25T02:35:22.855Z,18.07
2019-02-25T02:37:53.188Z,18.23
2019-02-25T02:40:23.338Z,18.07
2019-02-25T02:42:55.008Z,19.07
2019-02-25T02:45:37.476Z,22.17
2019-02-25T02:48:13.910Z,20.60
2019-02-25T02:50:44.167Z,19.10
2019-02-25T02:53:14.332Z,19.33
2019-02-25T02:55:44.691Z,18.53
2019-02-25T02:58:14.925Z,18.57
2019-02-25T03:00:45.250Z,20.27
2019-02-25T03:03:15.573Z,18.20
2019-02-25T03:05:45.950Z,19.00
2019-02-25T03:08:16.324Z,18.83
2019-02-25T03:10:46.578Z,19.73
2019-02-25T03:13:17.075Z,18.53
2019-02-25T03:15:47.296Z,17.63
2019-02-25T03:18:17.623Z,18.00
2019-02-25T03:20:47.860Z,18.43
2019-02-25T03:23:18.064Z,18.00
2019-02-25T03:25:48.428Z,18.23
2019-02-25T03:28:18.818Z,17.70
2019-02-25T03:30:49.058Z,18.23
2019-02-25T03:33:19.365Z,18.33
2019-02-25T03:35:49.808Z,19.33
2019-02-25T03:38:20.151Z,19.47
2019-02-25T03:40:50.449Z,18.30
2019-02-25T03:43:20.762Z,18.97
2019-02-25T03:45:51.020Z,19.70
2019-02-25T03:48:21.209Z,19.70
2019-02-25T03:50:51.796Z,18.47
2019-02-25T03:53:22.983Z,19.53
2019-02-25T03:55:53.324Z,20.70
2019-02-25T03:58:23.630Z,19.33
2019-02-25T04:00:53.930Z,19.80
2019-02-25T04:03:24.401Z,18.03
2019-02-25T04:05:54.707Z,17.73
2019-02-25T04:08:25.052Z,17.80
2019-02-25T04:10:55.291Z,17.83
2019-02-25T04:13:25.783Z,17.43
2019-02-25T04:15:56.356Z,17.40
2019-02-25T04:18:26.535Z,18.07
2019-02-25T04:20:56.759Z,17.77
2019-02-25T04:23:27.015Z,20.13
2019-02-25T04:25:57.301Z,17.57
2019-02-25T04:28:27.628Z,17.10
2019-02-25T04:30:57.864Z,17.67
2019-02-25T04:33:28.278Z,18.37
2019-02-25T04:35:58.538Z,18.17
2019-02-25T04:38:28.925Z,19.40
2019-02-25T04:40:59.352Z,18.50
2019-02-25T04:43:29.503Z,18.73
2019-02-25T04:45:59.797Z,17.90
2019-02-25T04:48:30.020Z,19.47
2019-02-25T04:51:00.242Z,19.47
2019-02-25T04:53:30.468Z,19.30
2019-02-25T04:56:00.703Z,20.33
2019-02-25T04:58:30.905Z,18.30
2019-02-25T05:01:00.898Z,18.60
2019-02-25T05:03:49.680Z,17.80
2019-02-25T05:06:19.611Z,18.63
2019-02-25T05:08:49.548Z,19.33
2019-02-25T05:11:19.540Z,19.90
2019-02-25T05:13:49.413Z,18.60
2019-02-25T05:16:19.293Z,17.10
2019-02-25T05:18:49.655Z,18.90
2019-02-25T05:21:19.651Z,17.77
2019-02-25T05:23:49.851Z,24.77
2019-02-25T05:26:20.135Z,20.20
2019-02-25T05:28:50.013Z,20.20
2019-02-25T05:31:20.078Z,19.90
2019-02-25T05:33:49.945Z,19.03
2019-02-25T05:36:19.877Z,19.17
2019-02-25T05:38:49.819Z,19.17
2019-02-25T05:41:19.691Z,20.63
2019-02-25T05:43:49.716Z,20.90
2019-02-25T05:46:19.599Z,18.83
2019-02-25T05:48:49.479Z,21.17
2019-02-25T05:51:19.461Z,20.27
2019-02-25T05:53:49.523Z,19.97
2019-02-25T05:56:19.583Z,19.87
2019-02-25T05:58:49.597Z,20.17
2019-02-25T06:01:19.524Z,18.93
2019-02-25T06:03:49.664Z,20.33
2019-02-25T06:06:19.598Z,22.30
2019-02-25T06:08:49.638Z,20.90
2019-02-25T06:11:19.615Z,20.27
2019-02-25T06:13:49.608Z,23.20
2019-02-25T06:16:19.523Z,21.53
2019-02-25T06:18:49.499Z,22.53
2019-02-25T06:21:19.557Z,21.23
2019-02-25T06:23:49.487Z,36.70
2019-02-25T06:26:19.749Z,33.00
2019-02-25T06:28:49.775Z,30.17
2019-02-25T06:31:19.788Z,28.10
2019-02-25T06:33:49.848Z,21.13
2019-02-25T06:36:19.811Z,22.43
2019-02-25T06:38:49.697Z,25.77
2019-02-25T06:41:19.656Z,20.30
2019-02-25T06:43:49.967Z,22.53
2019-02-25T06:46:20.020Z,25.33
2019-02-25T06:48:49.969Z,22.27
2019-02-25T06:51:20.124Z,24.00
2019-02-25T06:53:50.124Z,22.70
2019-02-25T06:56:20.179Z,20.10
2019-02-25T06:58:50.157Z,21.60
2019-02-25T07:01:20.200Z,22.37
2019-02-25T07:04:08.976Z,21.73
2019-02-25T07:06:53.105Z,36.70
2019-02-25T07:09:40.574Z,20.87
2019-02-25T07:12:19.036Z,19.37
2019-02-25T07:15:11.022Z,22.30
2019-02-25T07:17:59.863Z,23.00
2019-02-25T07:20:42.779Z,22.97
2019-02-25T07:23:21.804Z,25.23
2019-02-25T07:26:06.364Z,22.57
2019-02-25T07:28:58.500Z,22.57
2019-02-25T07:31:50.511Z,22.10
2019-02-25T07:34:39.268Z,22.63
2019-02-25T07:37:16.356Z,20.60
2019-02-25T07:40:11.540Z,20.53
2019-02-25T07:42:59.105Z,20.73
2019-02-25T07:45:50.875Z,19.87
2019-02-25T07:48:32.127Z,20.67
2019-02-25T07:51:11.157Z,20.97
2019-02-25T07:54:08.841Z,21.70
2019-02-25T07:57:00.454Z,20.97
2019-02-25T08:00:01.570Z,20.80
2019-02-25T08:02:47.040Z,20.73
2019-02-25T08:05:36.064Z,20.73
2019-02-25T08:08:23.560Z,23.27
2019-02-25T08:11:30.643Z,26.43
2019-02-25T08:14:38.147Z,21.70
2019-02-25T08:17:23.268Z,23.07
2019-02-25T08:20:12.892Z,22.97
2019-02-25T08:23:07.666Z,20.80
2019-02-25T08:25:56.442Z,22.07
2019-02-25T08:28:44.157Z,21.77
2019-02-25T08:31:33.043Z,21.20
2019-02-25T08:34:28.378Z,19.67
2019-02-25T08:37:27.193Z,22.40
2019-02-25T08:40:23.747Z,22.00
2019-02-25T08:43:03.457Z,21.60
2019-02-25T08:45:47.231Z,20.27
2019-02-25T08:48:31.771Z,19.83
2019-02-25T08:51:01.789Z,21.23
2019-02-25T08:53:31.750Z,21.00
2019-02-25T08:56:01.658Z,21.37
2019-02-25T08:58:31.692Z,20.77
2019-02-25T09:01:02.017Z,19.17
2019-02-25T09:03:31.931Z,19.17
2019-02-25T09:06:01.969Z,20.07
2019-02-25T09:08:31.923Z,19.67
2019-02-25T09:11:01.871Z,20.07
2019-02-25T09:13:31.787Z,18.30
2019-02-25T09:16:01.820Z,18.17
2019-02-25T09:18:31.814Z,19.60
2019-02-25T09:21:01.827Z,17.53
2019-02-25T09:23:32.224Z,18.20
2019-02-25T09:26:02.140Z,18.07
2019-02-25T09:28:32.365Z,18.50
2019-02-25T09:31:02.269Z,18.43
2019-02-25T09:33:32.321Z,18.50
2019-02-25T09:36:02.379Z,18.17
2019-02-25T09:38:32.400Z,19.10
2019-02-25T09:41:02.361Z,18.40
2019-02-25T09:43:32.293Z,18.60
2019-02-25T09:46:02.251Z,18.40
2019-02-25T09:48:32.319Z,18.37
2019-02-25T09:51:02.389Z,19.87
2019-02-25T09:53:32.283Z,17.33
2019-02-25T09:56:02.374Z,17.60
2019-02-25T09:58:32.376Z,18.67
2019-02-25T10:01:02.691Z,19.40
2019-02-25T10:03:32.626Z,18.03
2019-02-25T10:06:02.636Z,18.23
2019-02-25T10:08:32.587Z,17.70
2019-02-25T10:11:02.499Z,17.53
2019-02-25T10:13:32.409Z,17.97
2019-02-25T10:16:02.594Z,18.37
2019-02-25T10:18:32.501Z,19.50
2019-02-25T10:21:03.887Z,18.80
2019-02-25T10:23:35.276Z,17.90
2019-02-25T10:26:05.259Z,17.87
2019-02-25T10:28:38.076Z,18.13
2019-02-25T10:31:08.088Z,19.27
2019-02-25T10:33:38.169Z,18.27
2019-02-25T10:36:08.099Z,18.40
2019-02-25T10:38:38.016Z,19.10
2019-02-25T10:41:07.909Z,18.90
2019-02-25T10:43:37.863Z,18.47
2019-02-25T10:46:09.522Z,18.80
2019-02-25T10:48:39.442Z,19.10
2019-02-25T10:51:11.023Z,18.93
2019-02-25T10:53:41.007Z,18.03
2019-02-25T10:56:16.731Z,18.30
2019-02-25T10:58:47.370Z,16.67
2019-02-25T11:01:19.722Z,17.00
2019-02-25T11:03:50.042Z,16.50
2019-02-25T11:06:20.804Z,16.50
2019-02-25T11:08:57.313Z,16.97
2019-02-25T11:11:30.547Z,17.50
2019-02-25T11:14:01.398Z,17.23
2019-02-25T11:16:32.131Z,16.47
2019-02-25T11:19:02.297Z,16.53
2019-02-25T11:21:32.920Z,17.57
2019-02-25T11:24:03.834Z,17.63
2019-02-25T11:26:35.320Z,17.20
2019-02-25T11:29:07.527Z,17.17
2019-02-25T11:31:37.162Z,17.50
2019-02-25T11:34:08.050Z,17.03
2019-02-25T11:36:38.060Z,17.47
2019-02-25T11:39:09.475Z,16.63
2019-02-25T11:41:41.073Z,17.43
2019-02-25T11:44:11.103Z,16.10
2019-02-25T11:46:41.347Z,15.83
2019-02-25T11:49:11.317Z,17.13
2019-02-25T11:51:41.198Z,16.13
2019-02-25T11:54:11.189Z,16.40
2019-02-25T11:56:41.162Z,14.95
2019-02-25T11:59:11.119Z,14.63
2019-02-25T12:01:41.148Z,15.13
2019-02-25T12:04:11.053Z,13.80
2019-02-25T12:06:41.018Z,14.18
2019-02-25T12:09:11.126Z,13.55
2019-02-25T12:11:41.027Z,13.13
2019-02-25T12:14:10.984Z,14.40
2019-02-25T12:16:40.915Z,14.13
2019-02-25T12:19:17.720Z,13.50
2019-02-25T12:21:42.523Z,13.55
2019-02-25T12:24:12.589Z,13.38
2019-02-25T12:26:42.747Z,13.93
2019-02-25T12:29:12.963Z,14.18
2019-02-25T12:31:42.875Z,15.08
2019-02-25T12:34:12.823Z,14.07
2019-02-25T12:36:42.867Z,13.08
2019-02-25T12:39:13.437Z,14.03
2019-02-25T12:41:43.495Z,13.20
2019-02-25T12:44:13.410Z,13.95
2019-02-25T12:46:43.388Z,13.22
2019-02-25T12:49:13.336Z,13.48
2019-02-25T12:51:43.251Z,14.23
2019-02-25T12:54:13.291Z,13.18
2019-02-25T12:56:43.165Z,12.78
2019-02-25T12:59:13.051Z,13.60
2019-02-25T13:01:43.034Z,13.90
2019-02-25T13:04:13.133Z,12.68
2019-02-25T13:06:43.094Z,12.70
2019-02-25T13:09:16.611Z,11.30
2019-02-25T13:11:46.667Z,12.45
2019-02-25T13:14:16.642Z,12.65
2019-02-25T13:16:46.621Z,12.33
2019-02-25T13:19:16.512Z,12.15
2019-02-25T13:21:46.468Z,12.35
2019-02-25T13:24:16.466Z,11.97
2019-02-25T13:26:46.663Z,13.05
2019-02-25T13:29:16.663Z,11.83
2019-02-25T13:31:46.595Z,12.35
2019-02-25T13:34:16.574Z,12.25
2019-02-25T13:36:46.535Z,12.25
2019-02-25T13:39:16.452Z,12.58
2019-02-25T13:41:46.647Z,12.30
2019-02-25T13:44:16.603Z,11.63
2019-02-25T13:46:46.741Z,11.45
2019-02-25T13:49:16.724Z,11.08
2019-02-25T13:51:46.731Z,11.73
2019-02-25T13:54:16.635Z,10.90
2019-02-25T13:56:46.519Z,11.78
2019-02-25T13:59:16.568Z,12.03
2019-02-25T14:01:46.624Z,12.25
2019-02-25T14:04:18.622Z,12.03
2019-02-25T14:06:48.612Z,11.55
2019-02-25T14:09:18.520Z,11.18
2019-02-25T14:11:48.583Z,10.88
2019-02-25T14:14:18.528Z,10.72
2019-02-25T14:16:48.841Z,10.43
2019-02-25T14:19:18.870Z,11.12
2019-02-25T14:21:48.750Z,11.80
2019-02-25T14:24:20.794Z,11.18
2019-02-25T14:26:50.479Z,11.68
2019-02-25T14:29:20.874Z,11.20
2019-02-25T14:31:51.184Z,10.93
2019-02-25T14:34:21.229Z,10.13
2019-02-25T14:36:52.488Z,10.57
2019-02-25T14:39:27.869Z,10.90
2019-02-25T14:41:57.186Z,11.37
2019-02-25T14:44:32.389Z,10.50
2019-02-25T14:47:01.121Z,9.40
2019-02-25T14:49:32.736Z,9.43
2019-02-25T14:52:03.244Z,10.50
2019-02-25T14:57:12.602Z,10.47
2019-02-25T14:59:43.045Z,11.00
2019-02-25T15:02:13.168Z,10.80
2019-02-25T15:04:43.947Z,10.37
2019-02-25T15:07:15.244Z,10.50
2019-02-25T15:09:45.819Z,10.50
2019-02-25T15:12:15.885Z,10.57
2019-02-25T15:14:45.780Z,10.50
2019-02-25T15:17:15.911Z,10.50
2019-02-25T15:19:45.829Z,10.70
2019-02-25T15:22:15.844Z,9.80
2019-02-25T15:24:48.054Z,9.50
2019-02-25T15:27:17.694Z,10.13
2019-02-25T15:29:48.965Z,10.10
2019-02-25T15:32:19.270Z,9.90
2019-02-25T15:34:50.737Z,9.80
2019-02-25T15:37:20.790Z,10.23
2019-02-25T15:39:50.915Z,10.50
2019-02-25T15:42:23.767Z,11.23
2019-02-25T15:44:55.057Z,10.50
2019-02-25T15:47:24.819Z,10.40
2019-02-25T15:49:55.367Z,11.37
2019-02-25T15:52:27.737Z,11.63
2019-02-25T15:54:58.228Z,11.73
2019-02-25T15:57:28.478Z,11.67
2019-02-25T16:00:00.278Z,11.37
2019-02-25T16:02:30.504Z,11.60
2019-02-25T16:05:01.288Z,10.27
2019-02-25T16:07:33.544Z,9.90
2019-02-25T16:10:06.816Z,11.60
2019-02-25T16:12:38.351Z,10.03
2019-02-25T16:15:12.817Z,10.87
2019-02-25T16:17:45.240Z,11.00
2019-02-25T16:20:17.524Z,10.93
2019-02-25T16:22:47.609Z,11.27
2019-02-25T16:25:18.087Z,10.90
2019-02-25T16:27:49.980Z,11.80
2019-02-25T16:30:21.337Z,11.40
2019-02-25T16:32:51.345Z,11.97
2019-02-25T16:35:21.762Z,12.13
2019-02-25T16:37:53.079Z,11.17
2019-02-25T16:40:26.412Z,10.93
2019-02-25T16:42:57.015Z,11.63
2019-02-25T16:45:28.469Z,12.20
2019-02-25T16:47:58.471Z,11.87
2019-02-25T16:50:28.598Z,10.70
2019-02-25T16:52:58.503Z,11.17
2019-02-25T16:55:28.688Z,10.13
2019-02-25T16:57:59.037Z,10.90
2019-02-25T17:00:32.464Z,10.73
2019-02-25T17:03:04.308Z,11.20
2019-02-25T17:05:37.357Z,10.30
2019-02-25T17:08:08.191Z,10.73
2019-02-25T17:10:38.511Z,10.60
2019-02-25T17:13:10.187Z,11.07
2019-02-25T17:15:40.174Z,11.60
2019-02-25T17:18:10.738Z,10.43
2019-02-25T17:20:40.753Z,10.43
2019-02-25T17:23:10.820Z,10.77
2019-02-25T17:25:43.332Z,10.03
2019-02-25T17:28:17.007Z,10.77
2019-02-25T17:30:45.612Z,11.23
2019-02-25T17:33:16.156Z,10.50
2019-02-25T17:35:47.608Z,10.80
2019-02-25T17:38:18.129Z,10.93
2019-02-25T17:40:49.307Z,11.27
2019-02-25T17:43:20.257Z,11.23
2019-02-25T17:45:50.335Z,11.07
2019-02-25T17:48:21.225Z,10.77
2019-02-25T17:50:52.969Z,11.27
2019-02-25T17:53:24.171Z,11.60
2019-02-25T17:55:55.446Z,11.93
2019-02-25T17:58:26.437Z,12.03
2019-02-25T18:00:58.688Z,11.77
2019-02-25T18:03:28.592Z,11.97
2019-02-25T18:05:58.983Z,14.87
2019-02-25T18:08:50.866Z,13.60
2019-02-25T18:11:22.361Z,14.57
2019-02-25T18:13:53.512Z,13.70
2019-02-25T18:16:23.901Z,14.50
2019-02-25T18:18:54.451Z,13.30
2019-02-25T18:21:28.307Z,13.47
2019-02-25T18:23:57.231Z,15.97
2019-02-25T18:26:28.624Z,15.47
2019-02-25T18:28:59.372Z,16.70
2019-02-25T18:31:30.875Z,15.70
2019-02-25T18:34:00.855Z,16.03
2019-02-25T18:36:32.744Z,15.40
2019-02-25T18:39:02.612Z,15.70
2019-02-25T18:41:34.268Z,15.17
2019-02-25T18:44:05.406Z,15.73
2019-02-25T18:46:36.448Z,14.67
2019-02-25T18:49:09.549Z,14.53
2019-02-25T18:51:40.807Z,15.73
2019-02-25T18:54:10.987Z,15.03
2019-02-25T18:56:42.559Z,16.20
2019-02-25T18:59:15.508Z,15.00
2019-02-25T19:01:45.364Z,14.57
2019-02-25T19:04:17.641Z,15.60
2019-02-25T19:06:47.900Z,15.43
2019-02-25T19:09:23.183Z,15.73
2019-02-25T19:11:56.170Z,15.00
2019-02-25T19:14:26.559Z,15.37
2019-02-25T19:16:59.618Z,15.17
2019-02-25T19:19:31.379Z,14.47
2019-02-25T19:22:01.119Z,14.90
2019-02-25T19:24:33.255Z,14.80
2019-02-25T19:27:04.342Z,14.27
2019-02-25T19:29:34.852Z,14.27
2019-02-25T19:32:07.241Z,13.90
2019-02-25T19:34:39.229Z,13.97
2019-02-25T19:37:10.354Z,15.40
2019-02-25T19:39:41.453Z,14.27
2019-02-25T19:42:15.482Z,14.73
2019-02-25T19:44:45.160Z,14.97
2019-02-25T19:47:16.910Z,15.20
2019-02-25T19:49:47.103Z,14.87
2019-02-25T19:52:19.038Z,15.50
2019-02-25T19:54:50.657Z,14.70
2019-02-25T19:57:21.683Z,14.57
2019-02-25T19:59:52.987Z,15.00
2019-02-25T20:02:24.752Z,14.83
2019-02-25T20:04:55.851Z,15.97
2019-02-25T20:07:28.371Z,15.37
2019-02-25T20:09:58.330Z,15.20
2019-02-25T20:12:28.354Z,15.70
2019-02-25T20:14:58.297Z,15.43
2019-02-25T20:17:30.495Z,16.73
2019-02-25T20:20:02.476Z,15.63
2019-02-25T20:22:32.764Z,15.23
2019-02-25T20:25:03.633Z,15.07
2019-02-25T20:27:33.515Z,16.30
2019-02-25T20:30:04.967Z,14.80
2019-02-25T20:32:36.491Z,16.10
2019-02-25T20:35:07.945Z,15.10
2019-02-25T20:37:37.875Z,16.13
2019-02-25T20:40:08.351Z,16.03
2019-02-25T20:42:38.389Z,16.03
2019-02-25T20:45:11.460Z,16.87
2019-02-25T20:47:41.615Z,17.23
2019-02-25T20:50:14.623Z,15.43
2019-02-25T20:52:45.149Z,16.13
2019-02-25T20:55:15.239Z,15.97
2019-02-25T20:57:45.285Z,16.03
2019-02-25T21:00:17.722Z,15.47
2019-02-25T21:02:48.835Z,16.47
2019-02-25T21:05:20.127Z,15.87
2019-02-25T21:07:52.671Z,14.83
2019-02-25T21:10:22.796Z,15.60
2019-02-25T21:12:54.706Z,15.50
2019-02-25T21:15:25.845Z,15.60
2019-02-25T21:17:58.966Z,15.50
2019-02-25T21:20:31.179Z,14.70
2019-02-25T21:23:03.517Z,15.80
2019-02-25T21:25:33.819Z,15.67
2019-02-25T21:28:04.926Z,14.63
2019-02-25T21:30:39.098Z,15.27
2019-02-25T21:33:07.819Z,15.23
2019-02-25T21:35:39.593Z,15.23
2019-02-25T21:38:10.392Z,14.47
2019-02-25T21:40:40.576Z,15.93
2019-02-25T21:43:14.434Z,15.50
2019-02-25T21:45:46.119Z,15.17
2019-02-25T21:48:14.639Z,15.57
2019-02-25T21:50:45.032Z,14.03
2019-02-25T21:53:16.060Z,15.23
2019-02-25T21:55:46.823Z,14.97
2019-02-25T21:58:18.904Z,14.47
2019-02-25T22:00:49.515Z,14.57
2019-02-25T22:03:21.683Z,16.10
2019-02-25T22:05:53.598Z,14.80
2019-02-25T22:08:24.444Z,14.87
2019-02-25T22:10:55.647Z,14.37
2019-02-25T22:13:26.348Z,14.27
2019-02-25T22:15:58.631Z,14.57
2019-02-25T22:18:29.845Z,14.60
2019-02-25T22:21:00.300Z,13.37
2019-02-25T22:23:30.659Z,14.80
2019-02-25T22:26:02.678Z,14.33
2019-02-25T22:28:34.716Z,14.47
2019-02-25T22:31:06.613Z,14.43
2019-02-25T22:33:36.836Z,13.73
2019-02-25T22:36:07.252Z,13.47
2019-02-25T22:38:37.450Z,14.43
2019-02-25T22:41:07.835Z,14.67
2019-02-25T22:43:39.650Z,14.73
2019-02-25T22:46:11.691Z,14.87
2019-02-25T22:48:43.280Z,13.57
2019-02-25T22:51:13.948Z,13.57
2019-02-25T22:53:44.132Z,14.00
2019-02-25T22:56:15.878Z,13.77
2019-02-25T22:58:46.147Z,14.00
2019-02-25T23:01:18.075Z,14.07
2019-02-25T23:03:50.550Z,13.97
2019-02-25T23:06:31.272Z,15.20
2019-02-25T23:09:01.539Z,14.57
2019-02-25T23:11:33.381Z,14.30
2019-02-25T23:14:03.647Z,14.03
2019-02-25T23:16:33.844Z,15.27
2019-02-25T23:19:04.066Z,13.50
2019-02-25T23:21:36.065Z,13.40
2019-02-25T23:24:07.361Z,14.00
2019-02-25T23:26:37.715Z,14.47
2019-02-25T23:29:08.283Z,14.00
2019-02-25T23:31:38.658Z,14.30
2019-02-25T23:34:10.320Z,14.57
2019-02-25T23:36:44.835Z,15.07
2019-02-25T23:39:17.060Z,14.90
2019-02-25T23:41:46.305Z,14.60
2019-02-25T23:44:17.513Z,15.40
2019-02-25T23:46:49.001Z,14.90
2019-02-25T23:49:27.065Z,14.70
2019-02-25T23:51:51.459Z,15.00
2019-02-25T23:54:23.228Z,13.87
2019-02-25T23:56:55.085Z,14.90
2019-02-25T23:59:26.600Z,14.90
